createdAt,value
2017-09-11T00:01:40.147Z,79.48
2017-09-11T00:04:07.535Z,81.14
2017-09-11T00:06:35.040Z,81.30
2017-09-11T00:09:02.425Z,80.63
2017-09-11T00:11:29.818Z,81.12
2017-09-11T00:13:57.218Z,79.96
2017-09-11T00:16:24.603Z,81.03
2017-09-11T00:18:52.146Z,80.78
2017-09-11T00:21:19.531Z,79.76
2017-09-11T00:23:46.927Z,80.59
2017-09-11T00:26:14.326Z,80.50
2017-09-11T00:28:41.715Z,80.70
2017-09-11T00:31:09.142Z,79.82
2017-09-11T00:33:36.533Z,79.68
2017-09-11T00:36:03.914Z,80.71
2017-09-11T00:38:31.362Z,79.72
2017-09-11T00:40:58.730Z,79.86
2017-09-11T00:43:26.643Z,79.89
2017-09-11T00:45:54.022Z,80.37
2017-09-11T00:48:21.411Z,80.25
2017-09-11T00:50:48.794Z,79.27
2017-09-11T00:53:16.234Z,79.81
2017-09-11T00:55:43.650Z,80.27
2017-09-11T00:58:11.035Z,79.91
2017-09-11T01:00:38.418Z,79.50
2017-09-11T01:03:05.818Z,79.93
2017-09-11T01:05:33.197Z,79.44
2017-09-11T01:08:00.735Z,78.64
2017-09-11T01:10:28.118Z,78.52
2017-09-11T01:12:55.514Z,78.40
2017-09-11T01:15:22.914Z,79.35
2017-09-11T01:17:50.298Z,78.08
2017-09-11T01:20:17.694Z,78.46
2017-09-11T01:22:45.079Z,78.63
2017-09-11T01:25:12.479Z,78.56
2017-09-11T01:27:39.874Z,77.59
2017-09-11T01:30:07.263Z,78.44
2017-09-11T01:32:34.678Z,78.01
2017-09-11T01:35:02.062Z,78.29
2017-09-11T01:37:29.455Z,78.39
2017-09-11T01:39:57.028Z,77.30
2017-09-11T01:42:24.411Z,77.44
2017-09-11T01:44:51.822Z,78.01
2017-09-11T01:47:19.216Z,78.50
2017-09-11T01:49:46.606Z,78.37
2017-09-11T01:52:13.991Z,79.43
2017-09-11T01:54:41.388Z,79.41
2017-09-11T01:57:08.918Z,79.23
2017-09-11T01:59:36.306Z,78.85
2017-09-11T02:02:03.694Z,79.43
2017-09-11T02:04:31.094Z,78.96
2017-09-11T02:06:58.471Z,79.45
2017-09-11T02:09:25.874Z,79.12
2017-09-11T02:11:53.260Z,78.27
2017-09-11T02:14:20.639Z,78.30
2017-09-11T02:16:48.039Z,77.66
2017-09-11T02:19:15.438Z,77.72
2017-09-11T02:21:42.983Z,78.46
2017-09-11T02:24:10.376Z,77.18
2017-09-11T02:26:37.779Z,77.77
2017-09-11T02:29:05.170Z,78.36
2017-09-11T02:31:32.565Z,77.64
2017-09-11T02:34:00.098Z,77.01
2017-09-11T02:36:27.483Z,76.99
2017-09-11T02:38:54.867Z,76.22
2017-09-11T02:41:22.255Z,76.40
2017-09-11T02:43:49.637Z,76.19
2017-09-11T02:46:17.038Z,76.94
2017-09-11T02:48:44.430Z,76.89
2017-09-11T02:51:12.182Z,75.99
2017-09-11T02:53:39.586Z,76.80
2017-09-11T02:56:06.986Z,76.29
2017-09-11T02:58:34.375Z,76.02
2017-09-11T03:01:01.758Z,75.92
2017-09-11T03:03:29.303Z,75.83
2017-09-11T03:05:56.682Z,75.68
2017-09-11T03:08:24.063Z,76.03
2017-09-11T03:10:51.449Z,75.57
2017-09-11T03:13:18.834Z,75.83
2017-09-11T03:15:46.471Z,75.95
2017-09-11T03:18:13.855Z,75.69
2017-09-11T03:20:41.240Z,75.91
2017-09-11T03:23:08.631Z,75.55
2017-09-11T03:25:36.010Z,76.06
2017-09-11T03:28:03.551Z,75.93
2017-09-11T03:30:30.927Z,75.77
2017-09-11T03:32:58.313Z,76.93
2017-09-11T03:35:25.697Z,77.34
2017-09-11T03:37:53.196Z,77.36
2017-09-11T03:40:20.747Z,77.78
2017-09-11T03:42:48.127Z,76.68
2017-09-11T03:45:15.527Z,77.24
2017-09-11T03:47:42.918Z,77.25
2017-09-11T03:50:10.310Z,77.15
2017-09-11T03:52:37.723Z,78.17
2017-09-11T03:55:05.107Z,77.67
2017-09-11T03:57:32.489Z,77.22
2017-09-11T03:59:59.875Z,76.87
2017-09-11T04:02:27.259Z,77.35
2017-09-11T04:04:54.664Z,77.11
2017-09-11T04:07:22.046Z,77.13
2017-09-11T04:09:49.431Z,76.89
2017-09-11T04:12:16.826Z,77.67
2017-09-11T04:14:44.211Z,78.44
2017-09-11T04:17:11.750Z,79.06
2017-09-11T04:19:49.173Z,79.88
2017-09-11T04:22:16.558Z,79.56
2017-09-11T04:24:43.946Z,80.25
2017-09-11T04:27:11.330Z,79.42
2017-09-11T04:29:38.724Z,79.50
2017-09-11T04:32:06.102Z,79.70
2017-09-11T04:34:33.647Z,80.05
2017-09-11T04:37:01.038Z,80.46
2017-09-11T04:39:28.423Z,80.76
2017-09-11T04:41:55.806Z,80.76
2017-09-11T04:44:23.191Z,80.67
2017-09-11T04:46:50.610Z,81.24
2017-09-11T04:49:17.998Z,80.99
2017-09-11T04:51:45.388Z,80.79
2017-09-11T04:54:12.780Z,80.79
2017-09-11T04:56:40.157Z,81.76
2017-09-11T04:59:07.546Z,80.60
2017-09-11T05:01:35.889Z,82.27
2017-09-11T05:04:03.346Z,82.12
2017-09-11T05:06:30.726Z,83.16
2017-09-11T05:08:58.125Z,83.71
2017-09-11T05:11:25.515Z,84.31
2017-09-11T05:13:53.059Z,85.02
2017-09-11T05:16:20.442Z,85.32
2017-09-11T05:18:47.831Z,86.19
2017-09-11T05:21:15.211Z,86.91
2017-09-11T05:23:42.607Z,87.23
2017-09-11T05:26:10.392Z,87.43
2017-09-11T05:28:37.769Z,87.73
2017-09-11T05:31:05.155Z,87.93
2017-09-11T05:33:32.577Z,88.80
2017-09-11T05:35:59.926Z,89.01
2017-09-11T05:38:27.462Z,89.10
2017-09-11T05:40:54.854Z,89.38
2017-09-11T05:43:22.233Z,88.47
2017-09-11T05:45:49.627Z,87.34
2017-09-11T05:48:17.012Z,87.83
2017-09-11T05:50:44.432Z,88.06
2017-09-11T05:53:11.814Z,88.34
2017-09-11T05:55:39.198Z,89.00
2017-09-11T05:58:06.587Z,89.35
2017-09-11T06:00:33.970Z,89.70
2017-09-11T06:03:01.832Z,89.32
2017-09-11T06:05:29.216Z,89.09
2017-09-11T06:07:56.595Z,88.89
2017-09-11T06:10:23.986Z,89.43
2017-09-11T06:12:51.366Z,89.08
2017-09-11T06:15:18.898Z,89.24
2017-09-11T06:17:46.282Z,89.29
2017-09-11T06:20:13.666Z,89.22
2017-09-11T06:22:41.055Z,89.01
2017-09-11T06:25:08.443Z,89.38
2017-09-11T06:27:35.864Z,89.34
2017-09-11T06:30:03.242Z,89.69
2017-09-11T06:32:30.633Z,89.66
2017-09-11T06:34:58.019Z,89.30
2017-09-11T06:37:25.402Z,89.20
2017-09-11T06:39:52.806Z,89.52
2017-09-11T06:42:20.181Z,89.59
2017-09-11T06:44:47.570Z,89.46
2017-09-11T06:47:14.962Z,89.49
2017-09-11T06:49:42.341Z,89.13
2017-09-11T06:52:10.158Z,88.85
2017-09-11T06:54:37.539Z,88.97
2017-09-11T06:57:04.924Z,88.81
2017-09-11T06:59:32.302Z,88.50
2017-09-11T07:01:59.686Z,88.01
2017-09-11T07:04:27.103Z,88.14
2017-09-11T07:06:54.483Z,88.17
2017-09-11T07:09:21.874Z,87.08
2017-09-11T07:11:49.269Z,87.22
2017-09-11T07:14:16.650Z,87.12
2017-09-11T07:16:44.049Z,87.14
2017-09-11T07:19:11.430Z,87.18
2017-09-11T07:21:38.922Z,87.22
2017-09-11T07:24:06.314Z,86.98
2017-09-11T07:26:33.694Z,86.34
2017-09-11T07:29:01.086Z,87.06
2017-09-11T07:31:28.471Z,87.92
2017-09-11T07:33:56.014Z,88.30
2017-09-11T07:36:23.394Z,88.33
2017-09-11T07:38:50.774Z,87.85
2017-09-11T07:41:18.171Z,87.12
2017-09-11T07:43:45.551Z,86.91
2017-09-11T07:46:13.086Z,87.60
2017-09-11T07:48:40.472Z,86.48
2017-09-11T07:51:07.858Z,87.33
2017-09-11T07:53:35.247Z,88.30
2017-09-11T07:56:02.638Z,88.34
2017-09-11T07:58:30.183Z,88.64
2017-09-11T08:00:57.570Z,89.26
2017-09-11T08:03:24.963Z,90.49
2017-09-11T08:05:52.359Z,89.54
2017-09-11T08:08:19.743Z,89.45
2017-09-11T08:10:47.136Z,90.15
2017-09-11T08:13:14.788Z,90.35
2017-09-11T08:15:42.171Z,89.42
2017-09-11T08:18:09.555Z,88.52
2017-09-11T08:20:36.965Z,87.70
2017-09-11T08:23:04.349Z,88.11
2017-09-11T08:25:31.730Z,86.46
2017-09-11T08:27:59.226Z,86.44
2017-09-11T08:30:26.609Z,86.54
2017-09-11T08:32:53.990Z,85.60
2017-09-11T08:35:21.395Z,86.95
2017-09-11T08:37:50.695Z,84.33
2017-09-11T08:40:18.087Z,84.11
2017-09-11T08:42:45.580Z,83.12
2017-09-11T08:45:12.972Z,81.74
2017-09-11T08:47:40.350Z,77.98
2017-09-11T08:50:07.859Z,79.32
2017-09-11T08:52:35.238Z,76.66
2017-09-11T08:55:02.626Z,75.56
2017-09-11T08:57:30.178Z,74.69
2017-09-11T08:59:57.583Z,74.04
2017-09-11T09:02:24.976Z,73.77
2017-09-11T09:04:52.370Z,74.36
2017-09-11T09:07:19.763Z,72.41
2017-09-11T09:12:14.178Z,69.57
2017-09-11T09:14:41.571Z,68.75
2017-09-11T09:17:08.967Z,66.58
2017-09-11T09:19:36.347Z,64.76
2017-09-11T09:22:03.771Z,63.66
2017-09-11T09:24:31.154Z,64.02
2017-09-11T09:26:58.536Z,63.39
2017-09-11T09:29:25.926Z,61.29
2017-09-11T09:31:53.320Z,61.15
2017-09-11T09:34:21.119Z,60.58
2017-09-11T09:36:48.502Z,60.34
2017-09-11T09:39:15.895Z,59.14
2017-09-11T09:41:43.279Z,58.74
2017-09-11T09:44:10.667Z,56.34
2017-09-11T09:46:38.059Z,55.20
2017-09-11T09:49:05.448Z,53.71
2017-09-11T09:51:32.833Z,54.82
2017-09-11T09:54:00.230Z,56.01
2017-09-11T09:56:27.614Z,54.00
2017-09-11T09:58:55.155Z,56.72
2017-09-11T10:01:22.539Z,56.02
2017-09-11T10:03:49.930Z,54.41
2017-09-11T10:06:17.322Z,56.40
2017-09-11T10:08:44.711Z,55.23
2017-09-11T10:11:12.118Z,55.35
2017-09-11T10:13:39.502Z,57.05
2017-09-11T10:16:06.893Z,54.43
2017-09-11T10:18:34.293Z,54.22
2017-09-11T10:21:01.666Z,55.10
2017-09-11T10:23:29.202Z,56.62
2017-09-11T10:25:56.590Z,56.52
2017-09-11T10:29:00.118Z,56.14
2017-09-11T10:31:27.506Z,55.59
2017-09-11T10:33:55.038Z,57.05
2017-09-11T10:36:22.419Z,58.02
2017-09-11T10:38:49.802Z,55.53
2017-09-11T10:41:17.200Z,55.85
2017-09-11T10:43:44.588Z,54.65
2017-09-11T10:46:12.139Z,55.82
2017-09-11T10:48:39.528Z,54.30
2017-09-11T10:51:06.913Z,53.68
2017-09-11T10:53:34.300Z,52.25
2017-09-11T10:56:01.682Z,53.57
2017-09-11T10:58:29.443Z,51.00
2017-09-11T11:00:56.832Z,51.96
2017-09-11T11:03:24.214Z,51.96
2017-09-11T11:05:52.061Z,52.35
2017-09-11T11:08:19.439Z,52.56
2017-09-11T11:10:46.976Z,53.45
2017-09-11T11:13:14.364Z,52.36
2017-09-11T11:15:41.750Z,54.39
2017-09-11T11:18:09.150Z,54.35
2017-09-11T11:20:36.530Z,54.96
2017-09-11T11:23:03.912Z,56.47
2017-09-11T11:25:31.299Z,55.41
2017-09-11T11:27:58.687Z,56.19
2017-09-11T11:30:26.070Z,55.83
2017-09-11T11:32:53.459Z,55.26
2017-09-11T11:35:20.842Z,55.32
2017-09-11T11:37:48.386Z,53.03
2017-09-11T11:40:15.771Z,52.84
2017-09-11T11:42:43.155Z,51.81
2017-09-11T11:45:10.571Z,51.25
2017-09-11T11:47:37.958Z,51.48
2017-09-11T11:50:05.356Z,53.28
2017-09-11T11:52:32.738Z,53.39
2017-09-11T11:55:00.128Z,53.19
2017-09-11T11:57:27.618Z,52.63
2017-09-11T11:59:55.006Z,53.80
2017-09-11T12:02:22.398Z,52.63
2017-09-11T12:04:49.781Z,51.83
2017-09-11T12:07:17.170Z,51.62
2017-09-11T12:09:47.435Z,51.99
2017-09-11T12:12:14.828Z,51.63
2017-09-11T12:14:42.219Z,51.64
2017-09-11T12:17:09.607Z,52.08
2017-09-11T12:19:36.999Z,49.71
2017-09-11T12:22:04.549Z,49.36
2017-09-11T12:24:31.926Z,49.34
2017-09-11T12:26:59.321Z,50.08
2017-09-11T12:29:26.710Z,50.96
2017-09-11T12:31:54.102Z,50.42
2017-09-11T12:34:21.967Z,50.93
2017-09-11T12:36:49.347Z,51.61
2017-09-11T12:39:16.731Z,50.75
2017-09-11T12:41:44.114Z,49.64
2017-09-11T12:44:11.494Z,50.22
2017-09-11T12:46:39.029Z,52.00
2017-09-11T12:49:06.412Z,51.78
2017-09-11T12:51:33.802Z,49.11
2017-09-11T12:54:01.194Z,49.00
2017-09-11T12:56:28.579Z,49.04
2017-09-11T12:58:56.119Z,50.65
2017-09-11T13:01:23.508Z,52.26
2017-09-11T13:03:50.886Z,55.51
2017-09-11T13:06:18.270Z,56.58
2017-09-11T13:08:45.655Z,60.42
2017-09-11T13:11:13.411Z,57.46
2017-09-11T13:13:40.790Z,58.44
2017-09-11T13:16:08.182Z,57.02
2017-09-11T13:18:35.579Z,56.89
2017-09-11T13:21:02.955Z,55.78
2017-09-11T13:23:30.370Z,53.75
2017-09-11T13:25:57.751Z,52.85
2017-09-11T13:28:25.140Z,53.56
2017-09-11T13:30:52.532Z,52.48
2017-09-11T13:33:19.911Z,53.43
2017-09-11T13:35:47.457Z,52.42
2017-09-11T13:38:14.855Z,52.70
2017-09-11T13:40:42.238Z,52.19
2017-09-11T13:43:09.631Z,52.02
2017-09-11T13:45:37.027Z,51.54
2017-09-11T13:48:04.527Z,53.18
2017-09-11T13:50:31.922Z,49.63
2017-09-11T13:52:59.304Z,49.60
2017-09-11T13:55:26.694Z,48.99
2017-09-11T13:57:54.081Z,49.56
2017-09-11T14:00:21.498Z,52.20
2017-09-11T14:02:48.882Z,49.13
2017-09-11T14:05:16.307Z,49.67
2017-09-11T14:07:43.704Z,50.93
2017-09-11T14:10:11.124Z,51.00
2017-09-11T14:12:38.701Z,50.68
2017-09-11T14:15:06.082Z,52.19
2017-09-11T14:17:33.474Z,49.18
2017-09-11T14:20:00.862Z,49.87
2017-09-11T14:22:28.252Z,50.93
2017-09-11T14:24:55.674Z,50.32
2017-09-11T14:27:23.066Z,50.53
2017-09-11T14:29:50.450Z,51.71
2017-09-11T14:32:17.843Z,52.52
2017-09-11T14:34:45.628Z,51.17
2017-09-11T14:37:13.111Z,51.61
2017-09-11T14:39:40.494Z,52.61
2017-09-11T14:42:08.002Z,53.46
2017-09-11T14:44:35.386Z,54.04
2017-09-11T14:47:02.783Z,53.15
2017-09-11T14:49:30.163Z,52.41
2017-09-11T14:51:57.598Z,52.12
2017-09-11T14:54:25.059Z,53.16
2017-09-11T14:56:52.438Z,52.54
2017-09-11T15:01:49.843Z,53.37
2017-09-11T15:04:17.236Z,52.48
2017-09-11T15:06:44.613Z,52.45
2017-09-11T15:09:12.107Z,52.80
2017-09-11T15:11:39.491Z,50.68
2017-09-11T15:14:06.892Z,51.15
2017-09-11T15:16:34.295Z,51.78
2017-09-11T15:19:01.687Z,51.02
2017-09-11T15:21:29.079Z,51.87
2017-09-11T15:23:56.514Z,51.48
2017-09-11T15:26:23.902Z,53.87
2017-09-11T15:28:51.310Z,51.01
2017-09-11T15:31:18.695Z,51.53
2017-09-11T15:33:46.101Z,51.52
2017-09-11T15:36:13.478Z,51.44
2017-09-11T15:38:40.872Z,51.48
2017-09-11T15:41:08.408Z,51.87
2017-09-11T15:43:35.794Z,51.55
2017-09-11T15:46:03.177Z,52.56
2017-09-11T15:48:30.591Z,52.87
2017-09-11T15:50:57.974Z,53.63
2017-09-11T15:53:25.382Z,53.29
2017-09-11T15:55:52.775Z,53.76
2017-09-11T15:58:20.158Z,53.63
2017-09-11T16:00:47.766Z,52.68
2017-09-11T16:03:15.151Z,52.81
2017-09-11T16:05:42.536Z,53.72
2017-09-11T16:08:09.923Z,54.38
2017-09-11T16:10:47.356Z,54.76
2017-09-11T16:13:14.849Z,54.03
2017-09-11T16:15:42.226Z,55.32
2017-09-11T16:18:09.613Z,54.99
2017-09-11T16:20:37.046Z,54.77
2017-09-11T16:23:04.428Z,54.95
2017-09-11T16:25:31.844Z,55.02
2017-09-11T16:27:59.235Z,55.58
2017-09-11T16:30:26.618Z,55.75
2017-09-11T16:32:54.166Z,55.54
2017-09-11T16:35:21.552Z,56.08
2017-09-11T16:37:48.943Z,56.21
2017-09-11T16:40:16.335Z,56.09
2017-09-11T16:42:43.718Z,56.11
2017-09-11T16:45:11.104Z,54.90
2017-09-11T16:47:38.503Z,55.43
2017-09-11T16:50:05.905Z,55.10
2017-09-11T16:52:33.354Z,55.70
2017-09-11T16:55:03.124Z,56.47
2017-09-11T16:57:30.529Z,55.97
2017-09-11T16:59:57.933Z,54.69
2017-09-11T17:02:25.322Z,55.37
2017-09-11T17:04:52.714Z,55.00
2017-09-11T17:07:20.162Z,54.81
2017-09-11T17:09:47.567Z,55.02
2017-09-11T17:12:14.976Z,55.52
2017-09-11T17:14:42.371Z,57.50
2017-09-11T17:17:09.755Z,60.08
2017-09-11T17:19:37.173Z,60.80
2017-09-11T17:22:04.558Z,61.02
2017-09-11T17:24:31.939Z,62.41
2017-09-11T17:26:59.334Z,61.97
2017-09-11T17:29:26.719Z,61.16
2017-09-11T17:31:54.094Z,61.27
2017-09-11T17:34:21.899Z,61.57
2017-09-11T17:36:49.285Z,61.25
2017-09-11T17:39:16.677Z,61.29
2017-09-11T17:41:44.070Z,59.83
2017-09-11T17:44:11.457Z,60.59
2017-09-11T17:46:38.834Z,59.82
2017-09-11T17:49:06.246Z,59.71
2017-09-11T17:51:33.636Z,60.00
2017-09-11T17:54:01.010Z,58.62
2017-09-11T17:56:28.402Z,59.14
2017-09-11T17:58:55.785Z,59.28
2017-09-11T18:01:23.527Z,58.45
2017-09-11T18:03:50.911Z,58.86
2017-09-11T18:06:18.291Z,59.49
2017-09-11T18:08:45.679Z,61.04
2017-09-11T18:11:13.062Z,62.25
2017-09-11T18:13:40.806Z,65.92
2017-09-11T18:16:08.187Z,67.71
2017-09-11T18:18:35.571Z,69.76
2017-09-11T18:21:02.958Z,70.36
2017-09-11T18:23:30.339Z,70.23
2017-09-11T18:25:57.872Z,70.36
2017-09-11T18:28:25.250Z,70.19
2017-09-11T18:30:52.630Z,69.75
2017-09-11T18:33:20.022Z,69.37
2017-09-11T18:35:47.406Z,69.31
2017-09-11T18:38:15.184Z,70.16
2017-09-11T18:40:42.564Z,68.42
2017-09-11T18:43:09.951Z,68.44
2017-09-11T18:45:37.347Z,67.32
2017-09-11T18:48:04.727Z,66.67
2017-09-11T18:50:32.273Z,65.78
2017-09-11T18:52:59.648Z,65.47
2017-09-11T18:55:27.030Z,65.58
2017-09-11T18:57:54.424Z,65.37
2017-09-11T19:00:21.808Z,65.99
2017-09-11T19:02:49.213Z,66.43
2017-09-11T19:05:16.591Z,66.47
2017-09-11T19:07:43.974Z,66.85
2017-09-11T19:10:11.407Z,66.93
2017-09-11T19:12:38.791Z,67.16
2017-09-11T19:15:06.634Z,67.53
2017-09-11T19:17:34.015Z,67.70
2017-09-11T19:20:01.408Z,67.89
2017-09-11T19:22:28.793Z,67.99
2017-09-11T19:24:56.179Z,68.19
2017-09-11T19:27:23.607Z,68.29
2017-09-11T19:29:50.993Z,69.08
2017-09-11T19:32:18.382Z,68.85
2017-09-11T19:34:45.768Z,69.65
2017-09-11T19:37:13.154Z,70.12
2017-09-11T19:39:40.697Z,70.21
2017-09-11T19:42:08.086Z,70.61
2017-09-11T19:44:35.471Z,70.74
2017-09-11T19:47:02.868Z,71.03
2017-09-11T19:49:30.242Z,70.89
2017-09-11T19:51:57.738Z,71.13
2017-09-11T19:54:25.118Z,71.22
2017-09-11T19:56:52.514Z,71.37
2017-09-11T19:59:19.922Z,72.08
2017-09-11T20:01:47.322Z,71.82
2017-09-11T20:04:14.865Z,71.79
2017-09-11T20:06:42.247Z,72.06
2017-09-11T20:09:09.626Z,72.20
2017-09-11T20:11:37.014Z,72.11
2017-09-11T20:14:04.416Z,72.05
2017-09-11T20:16:31.943Z,72.12
2017-09-11T20:18:59.340Z,71.99
2017-09-11T20:21:26.722Z,71.98
2017-09-11T20:23:54.115Z,72.12
2017-09-11T20:26:21.492Z,72.20
2017-09-11T20:28:49.036Z,72.35
2017-09-11T20:31:16.419Z,72.63
2017-09-11T20:33:43.818Z,72.99
2017-09-11T20:36:11.210Z,73.04
2017-09-11T20:38:38.599Z,72.93
2017-09-11T20:41:06.000Z,72.91
2017-09-11T20:43:33.374Z,72.87
2017-09-11T20:46:00.763Z,73.03
2017-09-11T20:48:28.147Z,72.66
2017-09-11T20:50:55.531Z,72.56
2017-09-11T20:53:23.066Z,72.26
2017-09-11T20:55:50.451Z,72.38
2017-09-11T20:58:17.846Z,72.37
2017-09-11T21:00:45.238Z,72.05
2017-09-11T21:03:12.623Z,72.32
2017-09-11T21:05:40.163Z,72.33
2017-09-11T21:08:07.543Z,72.54
2017-09-11T21:10:34.969Z,72.74
2017-09-11T21:13:02.323Z,72.93
2017-09-11T21:15:29.706Z,72.79
2017-09-11T21:17:57.250Z,72.66
2017-09-11T21:20:24.634Z,72.51
2017-09-11T21:22:52.018Z,72.51
2017-09-11T21:25:19.411Z,72.49
2017-09-11T21:27:46.802Z,72.69
2017-09-11T21:30:14.339Z,73.08
2017-09-11T21:32:41.719Z,73.63
2017-09-11T21:35:09.111Z,73.47
2017-09-11T21:37:36.495Z,73.96
2017-09-11T21:40:03.883Z,74.17
2017-09-11T21:42:31.330Z,74.18
2017-09-11T21:44:58.702Z,74.39
2017-09-11T21:47:26.087Z,74.59
2017-09-11T21:49:53.485Z,74.55
2017-09-11T21:52:20.864Z,74.43
2017-09-11T21:54:48.554Z,74.63
2017-09-11T21:57:15.937Z,74.85
2017-09-11T21:59:43.331Z,74.83
2017-09-11T22:02:10.727Z,74.87
2017-09-11T22:04:38.113Z,75.13
2017-09-11T22:07:05.804Z,74.99
2017-09-11T22:09:33.195Z,75.02
2017-09-11T22:12:00.580Z,74.96
2017-09-11T22:14:27.972Z,74.75
2017-09-11T22:16:55.360Z,74.73
2017-09-11T22:19:22.893Z,74.92
2017-09-11T22:21:50.271Z,74.67
2017-09-11T22:24:17.654Z,74.53
2017-09-11T22:26:45.051Z,74.32
2017-09-11T22:29:12.447Z,73.86
2017-09-11T22:31:39.978Z,74.44
2017-09-11T22:34:07.364Z,74.68
2017-09-11T22:36:34.751Z,73.83
2017-09-11T22:39:02.147Z,73.39
2017-09-11T22:41:29.534Z,74.09
2017-09-11T22:43:57.098Z,74.00
2017-09-11T22:46:24.475Z,74.31
2017-09-11T22:48:51.867Z,75.14
2017-09-11T22:51:19.256Z,75.30
2017-09-11T22:53:46.642Z,75.17
2017-09-11T22:56:14.200Z,75.20
2017-09-11T22:58:41.587Z,74.79
2017-09-11T23:01:08.965Z,74.35
2017-09-11T23:03:36.350Z,74.91
2017-09-11T23:06:03.742Z,74.92
2017-09-11T23:08:31.159Z,73.39
2017-09-11T23:10:58.538Z,73.85
2017-09-11T23:13:25.920Z,73.35
2017-09-11T23:15:53.315Z,73.64
2017-09-11T23:18:20.718Z,73.95
2017-09-11T23:20:48.230Z,74.36
2017-09-11T23:23:15.603Z,73.16
2017-09-11T23:25:42.983Z,73.95
2017-09-11T23:28:10.385Z,72.77
2017-09-11T23:30:37.762Z,72.28
2017-09-11T23:33:05.303Z,72.66
2017-09-11T23:35:32.683Z,71.73
2017-09-11T23:38:00.073Z,71.39
2017-09-11T23:40:27.474Z,71.32
2017-09-11T23:42:54.870Z,70.90
2017-09-11T23:45:22.269Z,71.10
2017-09-11T23:47:49.646Z,71.79
2017-09-11T23:50:17.030Z,71.00
2017-09-11T23:52:44.419Z,71.38
2017-09-11T23:55:11.814Z,72.03
2017-09-11T23:57:39.550Z,71.08
